createdAt,value
2017-08-17T00:01:05.522Z,65.90
2017-08-17T00:03:33.064Z,65.90
2017-08-17T00:06:00.237Z,65.90
2017-08-17T00:08:27.675Z,65.90
2017-08-17T00:10:54.859Z,65.90
2017-08-17T00:13:22.043Z,65.90
2017-08-17T00:15:49.245Z,65.80
2017-08-17T00:18:16.426Z,65.80
2017-08-17T00:20:43.596Z,65.80
2017-08-17T00:23:10.769Z,65.80
2017-08-17T00:25:38.273Z,65.80
2017-08-17T00:28:05.742Z,65.80
2017-08-17T00:30:32.918Z,65.80
2017-08-17T00:33:00.104Z,65.80
2017-08-17T00:35:27.679Z,65.80
2017-08-17T00:37:54.864Z,65.80
2017-08-17T00:40:22.255Z,65.80
2017-08-17T00:42:50.205Z,66.50
2017-08-17T00:45:17.377Z,65.90
2017-08-17T00:47:44.560Z,64.80
2017-08-17T00:50:12.001Z,64.30
2017-08-17T00:52:39.570Z,63.40
2017-08-17T00:55:07.338Z,63.10
2017-08-17T00:57:34.777Z,62.70
2017-08-17T01:00:02.249Z,63.50
2017-08-17T01:02:30.188Z,63.80
2017-08-17T01:04:57.408Z,63.80
2017-08-17T01:07:24.612Z,64.00
2017-08-17T01:09:52.073Z,64.10
2017-08-17T01:12:19.245Z,64.10
2017-08-17T01:14:46.680Z,64.20
2017-08-17T01:17:14.194Z,64.30
2017-08-17T01:19:41.369Z,64.50
2017-08-17T01:22:08.539Z,64.60
2017-08-17T01:24:35.723Z,64.60
2017-08-17T01:27:03.045Z,64.70
2017-08-17T01:29:30.217Z,64.70
2017-08-17T01:31:57.599Z,64.70
2017-08-17T01:34:24.801Z,64.80
2017-08-17T01:36:51.996Z,64.90
2017-08-17T01:39:19.410Z,64.90
2017-08-17T01:41:46.864Z,65.00
2017-08-17T01:44:14.325Z,65.00
2017-08-17T01:46:41.772Z,65.00
2017-08-17T01:49:08.959Z,65.10
2017-08-17T01:51:36.590Z,65.10
2017-08-17T01:54:03.766Z,65.20
2017-08-17T01:56:31.182Z,65.20
2017-08-17T01:58:58.452Z,65.70
2017-08-17T02:01:26.112Z,65.20
2017-08-17T02:03:53.280Z,65.30
2017-08-17T02:06:20.517Z,65.30
2017-08-17T02:08:47.704Z,65.30
2017-08-17T02:11:15.119Z,65.30
2017-08-17T02:13:42.586Z,65.40
2017-08-17T02:16:10.036Z,65.40
2017-08-17T02:18:37.496Z,65.40
2017-08-17T02:21:04.680Z,65.50
2017-08-17T02:23:32.101Z,66.00
2017-08-17T02:25:59.292Z,65.50
2017-08-17T02:28:26.475Z,65.50
2017-08-17T02:30:53.663Z,66.00
2017-08-17T02:33:21.013Z,66.00
2017-08-17T02:35:48.465Z,66.00
2017-08-17T02:38:15.925Z,66.00
2017-08-17T02:40:43.112Z,66.10
2017-08-17T02:43:10.295Z,66.10
2017-08-17T02:45:37.684Z,66.10
2017-08-17T02:48:04.867Z,66.10
2017-08-17T02:50:32.040Z,66.10
2017-08-17T02:52:59.223Z,66.10
2017-08-17T02:55:26.411Z,66.20
2017-08-17T02:57:53.581Z,66.20
2017-08-17T03:00:20.894Z,66.20
2017-08-17T03:02:48.426Z,66.80
2017-08-17T03:05:15.612Z,66.20
2017-08-17T03:07:42.959Z,66.20
2017-08-17T03:10:10.147Z,66.20
2017-08-17T03:12:37.335Z,66.20
2017-08-17T03:15:04.519Z,66.20
2017-08-17T03:17:31.856Z,66.20
2017-08-17T03:19:59.098Z,66.20
2017-08-17T03:22:26.463Z,66.20
2017-08-17T03:24:54.111Z,66.20
2017-08-17T03:27:21.696Z,66.20
2017-08-17T03:29:48.865Z,66.20
2017-08-17T03:32:16.047Z,66.30
2017-08-17T03:34:43.632Z,66.30
2017-08-17T03:37:11.217Z,66.30
2017-08-17T03:39:38.866Z,66.30
2017-08-17T03:42:06.126Z,66.30
2017-08-17T03:44:33.294Z,66.30
2017-08-17T03:47:00.481Z,66.40
2017-08-17T03:49:27.653Z,66.40
2017-08-17T03:51:54.831Z,66.10
2017-08-17T03:54:22.016Z,66.40
2017-08-17T03:56:49.342Z,66.40
2017-08-17T03:59:16.513Z,66.40
2017-08-17T04:01:43.934Z,66.30
2017-08-17T04:04:11.593Z,66.30
2017-08-17T04:06:39.168Z,66.40
2017-08-17T04:09:06.615Z,66.40
2017-08-17T04:11:33.804Z,66.00
2017-08-17T04:14:00.988Z,65.10
2017-08-17T04:16:28.377Z,64.30
2017-08-17T04:18:55.568Z,63.90
2017-08-17T04:21:22.792Z,63.30
2017-08-17T04:23:49.976Z,63.80
2017-08-17T04:26:17.154Z,64.20
2017-08-17T04:28:44.434Z,64.40
2017-08-17T04:31:12.203Z,64.50
2017-08-17T04:33:39.387Z,64.60
2017-08-17T04:36:06.810Z,64.70
2017-08-17T04:38:34.440Z,65.30
2017-08-17T04:41:01.723Z,65.70
2017-08-17T04:43:29.491Z,66.00
2017-08-17T04:45:56.675Z,66.00
2017-08-17T04:48:23.841Z,66.80
2017-08-17T04:50:51.023Z,66.20
2017-08-17T04:53:18.211Z,66.20
2017-08-17T04:55:45.738Z,66.20
2017-08-17T04:58:18.340Z,66.20
2017-08-17T05:00:45.598Z,66.30
2017-08-17T05:03:12.784Z,66.40
2017-08-17T05:05:40.414Z,66.40
2017-08-17T05:08:07.677Z,66.40
2017-08-17T05:10:34.858Z,66.40
2017-08-17T05:13:02.959Z,66.10
2017-08-17T05:15:30.129Z,66.40
2017-08-17T05:17:57.375Z,66.40
2017-08-17T05:20:24.726Z,66.10
2017-08-17T05:22:51.911Z,66.30
2017-08-17T05:25:19.324Z,66.30
2017-08-17T05:27:46.512Z,66.30
2017-08-17T05:30:14.250Z,66.40
2017-08-17T05:32:41.439Z,66.30
2017-08-17T05:35:08.617Z,66.30
2017-08-17T05:37:35.793Z,66.30
2017-08-17T05:40:02.975Z,66.40
2017-08-17T05:42:30.300Z,66.40
2017-08-17T05:44:58.681Z,65.80
2017-08-17T05:47:25.877Z,66.40
2017-08-17T05:49:53.599Z,66.40
2017-08-17T05:52:20.791Z,66.40
2017-08-17T05:54:48.206Z,66.40
2017-08-17T05:57:15.656Z,66.40
2017-08-17T05:59:43.296Z,66.40
2017-08-17T06:02:10.479Z,66.40
2017-08-17T06:04:38.006Z,66.40
2017-08-17T06:07:06.106Z,66.40
2017-08-17T06:09:33.277Z,66.40
2017-08-17T06:12:00.785Z,66.40
2017-08-17T06:14:28.175Z,66.40
2017-08-17T06:16:55.620Z,66.40
2017-08-17T06:19:23.137Z,66.40
2017-08-17T06:21:50.538Z,66.40
2017-08-17T06:24:18.173Z,66.40
2017-08-17T06:26:45.765Z,66.40
2017-08-17T06:29:12.936Z,66.40
2017-08-17T06:31:40.119Z,66.40
2017-08-17T06:34:07.514Z,66.40
2017-08-17T06:36:34.974Z,66.40
2017-08-17T06:39:02.529Z,66.40
2017-08-17T06:41:30.097Z,66.40
2017-08-17T06:43:57.288Z,66.40
2017-08-17T06:46:24.556Z,66.40
2017-08-17T06:48:52.573Z,66.40
2017-08-17T06:51:19.755Z,66.40
2017-08-17T06:53:46.926Z,66.40
2017-08-17T06:56:14.637Z,66.40
2017-08-17T06:58:41.806Z,66.40
2017-08-17T07:01:09.362Z,66.40
2017-08-17T07:03:36.906Z,66.40
2017-08-17T07:06:04.324Z,66.40
2017-08-17T07:08:31.789Z,66.40
2017-08-17T07:10:58.973Z,66.40
2017-08-17T07:13:26.375Z,66.40
2017-08-17T07:15:53.565Z,66.40
2017-08-17T07:18:20.748Z,66.40
2017-08-17T07:20:48.003Z,66.40
2017-08-17T07:23:15.496Z,66.40
2017-08-17T07:25:42.894Z,66.60
2017-08-17T07:28:10.346Z,66.20
2017-08-17T07:30:37.996Z,65.30
2017-08-17T07:33:05.188Z,64.60
2017-08-17T07:35:32.416Z,63.90
2017-08-17T07:37:59.865Z,63.60
2017-08-17T07:40:27.037Z,63.10
2017-08-17T07:42:54.577Z,63.80
2017-08-17T07:45:21.763Z,64.10
2017-08-17T07:47:49.019Z,64.20
2017-08-17T07:50:16.229Z,64.40
2017-08-17T07:52:43.402Z,64.50
2017-08-17T07:55:11.052Z,64.60
2017-08-17T07:57:38.291Z,64.60
2017-08-17T08:00:05.488Z,64.80
2017-08-17T08:02:33.103Z,64.90
2017-08-17T08:05:00.288Z,64.90
2017-08-17T08:07:27.563Z,65.10
2017-08-17T08:09:55.181Z,65.20
2017-08-17T08:12:22.363Z,65.20
2017-08-17T08:14:49.767Z,65.20
2017-08-17T08:17:17.032Z,65.40
2017-08-17T08:19:44.220Z,65.30
2017-08-17T08:22:11.637Z,65.40
2017-08-17T08:24:38.828Z,65.40
2017-08-17T08:27:05.997Z,65.50
2017-08-17T08:29:33.169Z,65.50
2017-08-17T08:32:00.339Z,65.60
2017-08-17T08:34:28.617Z,65.60
2017-08-17T08:36:55.800Z,65.60
2017-08-17T08:39:23.213Z,65.60
2017-08-17T08:41:50.558Z,65.70
2017-08-17T08:44:17.733Z,65.70
2017-08-17T08:46:44.980Z,65.80
2017-08-17T08:49:12.158Z,65.80
2017-08-17T08:51:39.340Z,65.80
2017-08-17T08:54:06.923Z,65.80
2017-08-17T08:56:34.098Z,65.80
2017-08-17T08:59:01.288Z,65.80
2017-08-17T09:01:28.550Z,65.80
2017-08-17T09:03:56.093Z,65.80
2017-08-17T09:06:23.284Z,65.80
2017-08-17T09:08:50.874Z,65.90
2017-08-17T09:11:18.045Z,65.90
2017-08-17T09:13:45.540Z,65.90
2017-08-17T09:16:12.728Z,65.90
2017-08-17T09:18:39.906Z,65.90
2017-08-17T09:21:07.073Z,65.90
2017-08-17T09:23:34.560Z,66.00
2017-08-17T09:26:01.751Z,66.00
2017-08-17T09:28:28.989Z,66.00
2017-08-17T09:30:56.193Z,66.00
2017-08-17T09:33:23.362Z,66.00
2017-08-17T09:35:50.823Z,66.00
2017-08-17T09:38:18.010Z,66.00
2017-08-17T09:40:45.199Z,66.00
2017-08-17T09:43:12.699Z,66.00
2017-08-17T09:45:39.955Z,66.00
2017-08-17T09:48:07.144Z,66.00
2017-08-17T09:50:34.882Z,66.10
2017-08-17T09:53:02.339Z,66.10
2017-08-17T09:55:29.534Z,66.10
2017-08-17T09:57:56.940Z,66.10
2017-08-17T10:00:24.575Z,66.00
2017-08-17T10:02:52.165Z,66.10
2017-08-17T10:05:19.351Z,66.10
2017-08-17T10:07:46.521Z,66.10
2017-08-17T10:10:14.124Z,66.10
2017-08-17T10:12:41.294Z,66.10
2017-08-17T10:15:08.757Z,66.10
2017-08-17T10:17:36.935Z,66.10
2017-08-17T10:20:04.106Z,66.10
2017-08-17T10:22:31.292Z,66.10
2017-08-17T10:24:58.659Z,66.20
2017-08-17T10:27:25.856Z,66.20
2017-08-17T10:29:53.583Z,66.20
2017-08-17T10:32:20.778Z,66.20
2017-08-17T10:34:48.299Z,66.20
2017-08-17T10:37:15.479Z,66.20
2017-08-17T10:39:43.102Z,66.20
2017-08-17T10:42:10.624Z,66.20
2017-08-17T10:44:38.116Z,66.20
2017-08-17T10:47:05.302Z,66.30
2017-08-17T10:49:32.495Z,66.10
2017-08-17T10:51:59.969Z,65.30
2017-08-17T10:54:27.140Z,64.40
2017-08-17T10:56:54.559Z,64.00
2017-08-17T10:59:21.747Z,63.50
2017-08-17T11:01:49.299Z,63.50
2017-08-17T11:04:16.479Z,64.20
2017-08-17T11:06:44.001Z,64.30
2017-08-17T11:09:11.543Z,64.40
2017-08-17T11:11:39.127Z,64.50
2017-08-17T11:14:06.577Z,64.60
2017-08-17T11:16:34.221Z,64.60
2017-08-17T11:19:01.806Z,64.70
2017-08-17T11:21:29.001Z,64.90
2017-08-17T11:23:56.189Z,65.00
2017-08-17T11:26:23.374Z,65.10
2017-08-17T11:28:50.559Z,65.20
2017-08-17T11:31:17.927Z,65.20
2017-08-17T11:33:45.115Z,65.30
2017-08-17T11:36:12.298Z,65.30
2017-08-17T11:38:39.614Z,65.30
2017-08-17T11:41:07.272Z,65.30
2017-08-17T11:43:34.470Z,65.50
2017-08-17T11:46:01.805Z,65.50
2017-08-17T11:48:28.996Z,65.50
2017-08-17T11:50:55.611Z,65.50
2017-08-17T11:53:22.827Z,65.50
2017-08-17T11:55:50.276Z,65.60
2017-08-17T11:58:17.460Z,65.60
2017-08-17T12:00:44.936Z,65.60
2017-08-17T12:03:12.110Z,65.60
2017-08-17T12:05:39.806Z,65.70
2017-08-17T12:08:07.065Z,65.70
2017-08-17T12:10:34.404Z,65.70
2017-08-17T12:13:01.587Z,65.70
2017-08-17T12:15:29.012Z,65.90
2017-08-17T12:17:56.181Z,65.80
2017-08-17T12:20:23.621Z,65.80
2017-08-17T12:22:51.084Z,65.80
2017-08-17T12:25:18.258Z,65.80
2017-08-17T12:27:45.807Z,65.80
2017-08-17T12:30:13.324Z,65.90
2017-08-17T12:32:40.495Z,65.90
2017-08-17T12:35:07.748Z,65.90
2017-08-17T12:37:35.205Z,65.90
2017-08-17T12:40:02.408Z,65.90
2017-08-17T12:42:29.988Z,66.00
2017-08-17T12:44:57.269Z,66.00
2017-08-17T12:47:24.922Z,66.00
2017-08-17T12:49:52.110Z,66.00
2017-08-17T12:52:19.530Z,66.00
2017-08-17T12:54:47.104Z,66.00
2017-08-17T12:57:14.277Z,66.00
2017-08-17T12:59:41.449Z,66.00
2017-08-17T13:02:08.855Z,66.00
2017-08-17T13:04:36.373Z,66.00
2017-08-17T13:07:03.779Z,66.00
2017-08-17T13:09:30.953Z,66.00
2017-08-17T13:11:58.136Z,66.70
2017-08-17T13:14:25.529Z,66.10
2017-08-17T13:16:52.712Z,66.10
2017-08-17T13:19:20.138Z,66.10
2017-08-17T13:21:47.599Z,66.10
2017-08-17T13:24:15.365Z,66.10
2017-08-17T13:26:42.881Z,66.10
2017-08-17T13:29:10.121Z,66.10
2017-08-17T13:31:37.420Z,66.10
2017-08-17T13:34:04.598Z,66.10
2017-08-17T13:36:32.152Z,66.20
2017-08-17T13:38:59.336Z,66.20
2017-08-17T13:41:26.642Z,66.20
2017-08-17T13:43:54.090Z,66.20
2017-08-17T13:46:21.284Z,66.20
2017-08-17T13:48:48.454Z,66.20
2017-08-17T13:51:15.639Z,66.20
2017-08-17T13:53:42.813Z,66.20
2017-08-17T13:56:10.151Z,66.20
2017-08-17T13:58:37.317Z,66.20
2017-08-17T14:01:04.757Z,66.20
2017-08-17T14:03:31.947Z,66.20
2017-08-17T14:05:59.117Z,66.20
2017-08-17T14:08:26.632Z,66.30
2017-08-17T14:10:53.806Z,66.20
2017-08-17T14:13:21.316Z,66.30
2017-08-17T14:15:48.485Z,66.40
2017-08-17T14:18:15.737Z,65.90
2017-08-17T14:20:43.249Z,65.00
2017-08-17T14:23:10.421Z,64.30
2017-08-17T14:25:37.591Z,63.80
2017-08-17T14:28:04.944Z,63.30
2017-08-17T14:30:32.127Z,63.60
2017-08-17T14:32:59.865Z,64.20
2017-08-17T14:35:27.316Z,64.20
2017-08-17T14:37:54.807Z,64.30
2017-08-17T14:40:21.973Z,64.50
2017-08-17T14:42:49.386Z,64.60
2017-08-17T14:45:16.836Z,64.80
2017-08-17T14:47:44.292Z,64.80
2017-08-17T14:50:11.753Z,64.90
2017-08-17T14:52:38.923Z,65.00
2017-08-17T14:55:06.357Z,65.10
2017-08-17T14:57:33.817Z,65.10
2017-08-17T15:00:00.999Z,65.20
2017-08-17T15:02:28.173Z,65.30
2017-08-17T15:04:55.436Z,65.20
2017-08-17T15:07:22.724Z,65.30
2017-08-17T15:09:49.893Z,65.40
2017-08-17T15:12:17.065Z,65.50
2017-08-17T15:14:44.248Z,65.50
2017-08-17T15:17:11.824Z,65.60
2017-08-17T15:19:39.007Z,65.60
2017-08-17T15:22:06.435Z,65.70
2017-08-17T15:24:33.694Z,65.70
2017-08-17T15:27:01.155Z,65.60
2017-08-17T15:29:28.535Z,65.70
2017-08-17T15:31:55.755Z,65.70
2017-08-17T15:34:23.399Z,65.70
2017-08-17T15:36:50.639Z,65.90
2017-08-17T15:39:18.751Z,66.40
2017-08-17T15:41:45.936Z,65.80
2017-08-17T15:44:13.418Z,65.80
2017-08-17T15:46:40.590Z,65.80
2017-08-17T15:49:07.773Z,65.90
2017-08-17T15:51:35.173Z,65.80
2017-08-17T15:54:02.347Z,65.80
2017-08-17T15:56:29.724Z,65.90
2017-08-17T15:58:56.910Z,65.90
2017-08-17T16:01:24.358Z,65.90
2017-08-17T16:03:51.544Z,65.90
2017-08-17T16:06:19.027Z,65.90
2017-08-17T16:08:46.569Z,66.10
2017-08-17T16:11:13.916Z,66.00
2017-08-17T16:13:41.080Z,66.00
2017-08-17T16:16:08.768Z,66.00
2017-08-17T16:18:35.955Z,66.00
2017-08-17T16:21:03.143Z,66.00
2017-08-17T16:23:30.332Z,66.00
2017-08-17T16:25:57.743Z,66.00
2017-08-17T16:28:25.124Z,66.00
2017-08-17T16:30:52.296Z,66.00
2017-08-17T16:33:19.796Z,66.00
2017-08-17T16:35:47.188Z,66.10
2017-08-17T16:38:14.650Z,66.00
2017-08-17T16:40:41.841Z,66.00
2017-08-17T16:43:09.017Z,66.10
2017-08-17T16:45:36.258Z,66.10
2017-08-17T16:48:03.868Z,66.00
2017-08-17T16:50:31.041Z,66.10
2017-08-17T16:52:58.477Z,66.10
2017-08-17T16:55:25.654Z,66.10
2017-08-17T16:57:53.148Z,66.10
2017-08-17T17:00:20.537Z,66.10
2017-08-17T17:02:47.987Z,66.10
2017-08-17T17:05:15.447Z,66.20
2017-08-17T17:07:42.904Z,66.20
2017-08-17T17:10:10.680Z,66.20
2017-08-17T17:12:37.845Z,66.20
2017-08-17T17:15:05.347Z,66.20
2017-08-17T17:17:32.738Z,66.20
2017-08-17T17:20:00.332Z,66.20
2017-08-17T17:22:27.961Z,66.20
2017-08-17T17:24:55.367Z,66.20
2017-08-17T17:27:22.547Z,66.20
2017-08-17T17:29:50.077Z,66.20
2017-08-17T17:32:17.477Z,66.20
2017-08-17T17:34:44.645Z,66.20
2017-08-17T17:37:12.154Z,66.20
2017-08-17T17:39:39.395Z,66.20
2017-08-17T17:42:06.571Z,66.20
2017-08-17T17:44:34.036Z,66.30
2017-08-17T17:47:01.296Z,65.60
2017-08-17T17:49:28.756Z,64.70
2017-08-17T17:51:56.208Z,64.20
2017-08-17T17:54:23.377Z,63.60
2017-08-17T17:56:50.815Z,63.20
2017-08-17T17:59:18.021Z,63.90
2017-08-17T18:01:45.200Z,64.20
2017-08-17T18:04:12.382Z,64.30
2017-08-17T18:06:39.737Z,64.40
2017-08-17T18:09:06.915Z,64.50
2017-08-17T18:11:34.340Z,64.60
2017-08-17T18:14:01.970Z,64.60
2017-08-17T18:16:29.138Z,64.80
2017-08-17T18:18:56.319Z,64.80
2017-08-17T18:21:23.500Z,65.00
2017-08-17T18:23:50.673Z,65.10
2017-08-17T18:26:18.957Z,65.30
2017-08-17T18:28:46.141Z,65.10
2017-08-17T18:31:13.311Z,65.30
2017-08-17T18:33:40.528Z,65.30
2017-08-17T18:36:08.176Z,65.30
2017-08-17T18:38:35.756Z,65.50
2017-08-17T18:41:03.264Z,65.50
2017-08-17T18:43:30.455Z,65.50
2017-08-17T18:45:57.625Z,65.60
2017-08-17T18:48:24.793Z,65.60
2017-08-17T18:50:52.117Z,65.60
2017-08-17T18:53:19.626Z,65.70
2017-08-17T18:55:47.142Z,65.70
2017-08-17T18:58:14.484Z,65.60
2017-08-17T19:00:42.054Z,65.80
2017-08-17T19:03:09.242Z,65.80
2017-08-17T19:05:36.861Z,65.80
2017-08-17T19:08:04.311Z,65.80
2017-08-17T19:10:32.115Z,65.90
2017-08-17T19:12:59.717Z,65.90
2017-08-17T19:15:27.002Z,65.90
2017-08-17T19:17:54.799Z,65.90
2017-08-17T19:20:21.974Z,65.80
2017-08-17T19:22:49.488Z,65.80
2017-08-17T19:25:16.689Z,65.80
2017-08-17T19:27:43.974Z,65.80
2017-08-17T19:30:11.149Z,65.90
2017-08-17T19:32:38.576Z,65.90
2017-08-17T19:35:06.038Z,65.90
2017-08-17T19:37:33.493Z,66.10
2017-08-17T19:40:01.136Z,66.10
2017-08-17T19:42:28.408Z,66.10
2017-08-17T19:44:55.819Z,66.00
2017-08-17T19:47:23.324Z,66.00
2017-08-17T19:49:50.777Z,66.00
2017-08-17T19:52:50.526Z,65.50
2017-08-17T19:55:17.949Z,66.00
2017-08-17T19:57:45.414Z,66.10
2017-08-17T20:00:12.869Z,66.20
2017-08-17T20:02:40.377Z,66.10
2017-08-17T20:05:07.780Z,66.10
2017-08-17T20:07:35.228Z,66.10
2017-08-17T20:10:02.456Z,66.20
2017-08-17T20:12:29.923Z,66.10
2017-08-17T20:14:57.309Z,66.10
2017-08-17T20:17:24.795Z,66.10
2017-08-17T20:19:51.963Z,66.20
2017-08-17T20:22:19.357Z,66.20
2017-08-17T20:24:46.548Z,66.20
2017-08-17T20:27:13.972Z,66.20
2017-08-17T20:29:41.139Z,66.30
2017-08-17T20:32:08.689Z,66.30
2017-08-17T20:34:36.441Z,66.20
2017-08-17T20:37:03.609Z,66.20
2017-08-17T20:39:30.953Z,66.20
2017-08-17T20:41:58.160Z,66.20
2017-08-17T20:44:25.871Z,66.20
2017-08-17T20:46:53.065Z,66.20
2017-08-17T20:49:20.241Z,66.20
2017-08-17T20:51:47.731Z,66.20
2017-08-17T20:54:15.080Z,66.30
2017-08-17T20:56:42.258Z,66.30
2017-08-17T20:59:09.691Z,66.30
2017-08-17T21:01:36.868Z,66.30
2017-08-17T21:04:04.301Z,66.30
2017-08-17T21:06:31.814Z,66.50
2017-08-17T21:08:58.995Z,66.20
2017-08-17T21:11:26.422Z,66.50
2017-08-17T21:13:53.817Z,66.30
2017-08-17T21:16:21.273Z,67.10
2017-08-17T21:18:48.442Z,67.10
2017-08-17T21:21:16.116Z,67.10
2017-08-17T21:23:43.286Z,66.70
2017-08-17T21:26:10.487Z,65.70
2017-08-17T21:28:37.945Z,64.80
2017-08-17T21:31:05.400Z,64.30
2017-08-17T21:33:32.574Z,63.90
2017-08-17T21:36:00.009Z,63.50
2017-08-17T21:38:27.364Z,63.60
2017-08-17T21:40:54.930Z,64.20
2017-08-17T21:43:22.098Z,64.20
2017-08-17T21:45:49.841Z,64.40
2017-08-17T21:48:17.486Z,64.50
2017-08-17T21:50:45.066Z,64.60
2017-08-17T21:53:12.443Z,64.80
2017-08-17T21:55:39.631Z,64.80
2017-08-17T21:58:07.561Z,65.10
2017-08-17T22:00:34.948Z,65.10
2017-08-17T22:03:02.466Z,65.20
2017-08-17T22:05:29.683Z,65.30
2017-08-17T22:07:56.958Z,65.30
2017-08-17T22:10:24.723Z,65.40
2017-08-17T22:12:51.889Z,65.50
2017-08-17T22:15:19.054Z,65.40
2017-08-17T22:17:46.215Z,65.00
2017-08-17T22:20:13.738Z,65.70
2017-08-17T22:22:40.905Z,65.70
2017-08-17T22:25:08.424Z,65.70
2017-08-17T22:27:35.742Z,65.60
2017-08-17T22:30:03.267Z,65.70
2017-08-17T22:32:30.600Z,65.70
2017-08-17T22:34:58.066Z,65.70
2017-08-17T22:37:25.257Z,65.90
2017-08-17T22:39:52.422Z,65.90
2017-08-17T22:42:19.948Z,65.90
2017-08-17T22:44:47.127Z,66.70
2017-08-17T22:47:14.422Z,65.90
2017-08-17T22:49:41.951Z,66.00
2017-08-17T22:52:09.341Z,66.00
2017-08-17T22:54:36.796Z,66.00
2017-08-17T22:57:04.329Z,66.10
2017-08-17T22:59:31.708Z,66.10
2017-08-17T23:01:58.877Z,66.10
2017-08-17T23:04:26.320Z,66.10
2017-08-17T23:06:54.121Z,66.10
2017-08-17T23:09:21.562Z,66.10
2017-08-17T23:11:48.742Z,66.20
2017-08-17T23:14:15.948Z,66.10
2017-08-17T23:16:43.297Z,65.60
2017-08-17T23:19:10.752Z,66.20
2017-08-17T23:21:37.938Z,65.70
2017-08-17T23:24:05.362Z,66.10
2017-08-17T23:26:32.538Z,66.10
2017-08-17T23:28:59.969Z,66.20
2017-08-17T23:31:27.147Z,66.30
2017-08-17T23:33:54.609Z,66.20
2017-08-17T23:36:22.035Z,66.30
2017-08-17T23:38:49.679Z,66.30
2017-08-17T23:41:16.860Z,66.30
2017-08-17T23:43:44.161Z,66.30
2017-08-17T23:46:11.334Z,66.20
2017-08-17T23:48:38.515Z,66.30
2017-08-17T23:51:05.918Z,66.20
2017-08-17T23:53:33.433Z,66.30
2017-08-17T23:56:00.623Z,66.40
2017-08-17T23:58:28.232Z,66.20
